createdAt,value
2019-02-21T00:00:40.371Z,13.13
2019-02-21T00:03:10.199Z,13.17
2019-02-21T00:05:40.069Z,12.40
2019-02-21T00:08:09.859Z,11.70
2019-02-21T00:10:39.682Z,12.77
2019-02-21T00:13:09.470Z,12.93
2019-02-21T00:15:39.247Z,11.60
2019-02-21T00:18:09.044Z,11.83
2019-02-21T00:20:38.824Z,12.87
2019-02-21T00:23:08.619Z,12.23
2019-02-21T00:25:38.404Z,11.60
2019-02-21T00:28:08.224Z,11.87
2019-02-21T00:30:38.014Z,11.37
2019-02-21T00:33:07.799Z,10.70
2019-02-21T00:35:37.579Z,12.20
2019-02-21T00:38:07.390Z,11.57
2019-02-21T00:40:37.183Z,12.63
2019-02-21T00:43:07.049Z,12.77
2019-02-21T00:45:37.800Z,12.60
2019-02-21T00:48:07.596Z,11.93
2019-02-21T00:50:37.398Z,12.77
2019-02-21T00:53:07.230Z,11.67
2019-02-21T00:55:37.044Z,13.07
2019-02-21T00:58:06.869Z,12.43
2019-02-21T01:00:46.054Z,11.97
2019-02-21T01:03:08.220Z,12.13
2019-02-21T01:05:38.033Z,11.10
2019-02-21T01:08:08.502Z,11.77
2019-02-21T01:10:38.309Z,11.30
2019-02-21T01:13:08.107Z,11.63
2019-02-21T01:15:37.897Z,11.63
2019-02-21T01:18:07.687Z,11.67
2019-02-21T01:20:37.477Z,11.83
2019-02-21T01:23:07.267Z,12.30
2019-02-21T01:25:37.059Z,13.57
2019-02-21T01:28:06.842Z,11.17
2019-02-21T01:30:36.710Z,12.60
2019-02-21T01:33:06.552Z,12.27
2019-02-21T01:35:36.343Z,11.93
2019-02-21T01:38:06.132Z,12.00
2019-02-21T01:40:35.914Z,13.53
2019-02-21T01:43:05.724Z,12.80
2019-02-21T01:45:35.520Z,13.23
2019-02-21T01:48:05.304Z,13.47
2019-02-21T01:50:35.103Z,12.23
2019-02-21T01:53:04.887Z,13.37
2019-02-21T01:55:34.720Z,12.83
2019-02-21T01:58:04.573Z,12.97
2019-02-21T02:00:34.368Z,13.47
2019-02-21T02:03:04.616Z,13.13
2019-02-21T02:05:34.400Z,13.63
2019-02-21T02:08:04.194Z,12.60
2019-02-21T02:10:34.052Z,12.87
2019-02-21T02:13:03.859Z,12.90
2019-02-21T02:15:33.634Z,11.97
2019-02-21T02:18:03.423Z,13.40
2019-02-21T02:20:33.212Z,13.23
2019-02-21T02:23:03.007Z,14.10
2019-02-21T02:25:32.858Z,13.10
2019-02-21T02:28:02.660Z,12.93
2019-02-21T02:30:32.446Z,12.77
2019-02-21T02:33:02.239Z,13.90
2019-02-21T02:35:32.028Z,12.70
2019-02-21T02:38:01.826Z,12.27
2019-02-21T02:40:31.605Z,13.47
2019-02-21T02:43:01.408Z,13.23
2019-02-21T02:45:31.186Z,12.87
2019-02-21T02:48:00.987Z,12.93
2019-02-21T02:50:30.779Z,12.83
2019-02-21T02:53:00.589Z,12.83
2019-02-21T02:55:30.372Z,13.27
2019-02-21T02:58:00.143Z,13.33
2019-02-21T03:00:29.947Z,12.43
2019-02-21T03:02:59.736Z,12.30
2019-02-21T03:05:29.532Z,13.27
2019-02-21T03:07:59.315Z,13.40
2019-02-21T03:10:29.113Z,12.70
2019-02-21T03:12:58.897Z,13.47
2019-02-21T03:15:28.696Z,13.70
2019-02-21T03:17:58.488Z,13.90
2019-02-21T03:20:28.286Z,12.77
2019-02-21T03:22:58.071Z,12.77
2019-02-21T03:25:27.877Z,13.97
2019-02-21T03:27:57.673Z,13.00
2019-02-21T03:30:27.471Z,13.87
2019-02-21T03:32:57.247Z,13.53
2019-02-21T03:35:27.061Z,12.87
2019-02-21T03:37:56.851Z,14.20
2019-02-21T03:40:26.639Z,13.23
2019-02-21T03:42:56.431Z,13.60
2019-02-21T03:45:26.233Z,14.13
2019-02-21T03:47:56.027Z,14.07
2019-02-21T03:50:25.821Z,14.97
2019-02-21T03:52:55.599Z,13.70
2019-02-21T03:55:25.394Z,13.67
2019-02-21T03:57:55.200Z,14.37
2019-02-21T04:00:24.979Z,13.93
2019-02-21T04:02:54.775Z,14.20
2019-02-21T04:05:24.564Z,13.40
2019-02-21T04:07:54.360Z,13.60
2019-02-21T04:10:24.144Z,13.13
2019-02-21T04:12:53.937Z,13.13
2019-02-21T04:15:23.719Z,14.37
2019-02-21T04:17:53.535Z,14.63
2019-02-21T04:20:23.302Z,14.97
2019-02-21T04:22:53.091Z,13.87
2019-02-21T04:25:22.884Z,13.13
2019-02-21T04:27:52.679Z,14.13
2019-02-21T04:30:22.454Z,14.73
2019-02-21T04:32:52.271Z,13.17
2019-02-21T04:35:22.056Z,13.37
2019-02-21T04:37:51.848Z,12.87
2019-02-21T04:40:21.640Z,14.03
2019-02-21T04:42:51.412Z,14.20
2019-02-21T04:45:21.207Z,13.70
2019-02-21T04:47:50.979Z,13.57
2019-02-21T04:50:20.771Z,14.33
2019-02-21T04:52:50.561Z,13.67
2019-02-21T04:55:20.365Z,13.00
2019-02-21T04:57:50.147Z,13.67
2019-02-21T05:00:20.102Z,13.97
2019-02-21T05:02:49.882Z,13.17
2019-02-21T05:05:19.670Z,14.10
2019-02-21T05:07:50.523Z,13.23
2019-02-21T05:10:20.318Z,14.10
2019-02-21T05:12:50.111Z,13.67
2019-02-21T05:15:19.991Z,13.87
2019-02-21T05:17:49.767Z,13.20
2019-02-21T05:20:19.560Z,14.60
2019-02-21T05:22:49.356Z,13.93
2019-02-21T05:25:19.130Z,13.63
2019-02-21T05:27:50.298Z,13.37
2019-02-21T05:30:21.733Z,14.17
2019-02-21T05:33:08.529Z,14.60
2019-02-21T05:35:45.539Z,14.37
2019-02-21T05:38:16.979Z,13.57
2019-02-21T05:40:51.121Z,13.80
2019-02-21T05:43:38.770Z,15.07
2019-02-21T05:46:10.193Z,14.87
2019-02-21T05:48:44.678Z,13.37
2019-02-21T05:51:22.338Z,13.83
2019-02-21T05:53:53.785Z,13.40
2019-02-21T05:56:25.207Z,14.57
2019-02-21T05:59:02.367Z,13.77
2019-02-21T06:01:45.729Z,14.27
2019-02-21T06:04:19.321Z,14.17
2019-02-21T06:06:52.983Z,14.33
2019-02-21T06:09:26.885Z,14.90
2019-02-21T06:12:01.056Z,14.20
2019-02-21T06:14:32.499Z,14.87
2019-02-21T06:17:06.719Z,15.00
2019-02-21T06:19:38.162Z,20.80
2019-02-21T06:22:15.559Z,14.50
2019-02-21T06:24:46.998Z,15.17
2019-02-21T06:27:21.375Z,14.57
2019-02-21T06:29:52.815Z,15.37
2019-02-21T06:32:22.599Z,14.83
2019-02-21T06:34:52.626Z,14.90
2019-02-21T06:37:22.479Z,14.87
2019-02-21T06:39:52.263Z,14.67
2019-02-21T06:42:23.128Z,15.00
2019-02-21T06:44:52.936Z,15.70
2019-02-21T06:47:22.731Z,16.13
2019-02-21T06:49:52.507Z,16.57
2019-02-21T06:52:22.299Z,14.73
2019-02-21T06:54:52.080Z,16.93
2019-02-21T06:57:22.951Z,15.67
2019-02-21T06:59:52.732Z,16.20
2019-02-21T07:02:22.522Z,17.80
2019-02-21T07:04:52.306Z,16.60
2019-02-21T07:07:22.103Z,17.33
2019-02-21T07:09:51.880Z,16.13
2019-02-21T07:12:21.680Z,16.50
2019-02-21T07:14:51.451Z,17.67
2019-02-21T07:17:21.260Z,17.37
2019-02-21T07:19:51.027Z,17.23
2019-02-21T07:22:22.402Z,17.40
2019-02-21T07:24:54.253Z,18.17
2019-02-21T07:27:24.122Z,16.70
2019-02-21T07:29:53.904Z,17.30
2019-02-21T07:32:23.691Z,18.60
2019-02-21T07:34:53.476Z,17.30
2019-02-21T07:37:23.276Z,16.53
2019-02-21T07:39:53.063Z,17.97
2019-02-21T07:42:23.983Z,16.70
2019-02-21T07:44:53.865Z,17.07
2019-02-21T07:47:23.751Z,15.60
2019-02-21T07:49:53.548Z,18.00
2019-02-21T07:52:23.330Z,17.60
2019-02-21T07:55:01.329Z,17.60
2019-02-21T07:57:24.600Z,17.87
2019-02-21T07:59:54.392Z,17.57
2019-02-21T08:02:24.174Z,18.50
2019-02-21T08:04:53.971Z,16.70
2019-02-21T08:07:26.277Z,17.60
2019-02-21T08:09:55.260Z,17.97
2019-02-21T08:12:25.045Z,18.10
2019-02-21T08:14:56.293Z,18.63
2019-02-21T08:17:28.031Z,17.23
2019-02-21T08:20:07.968Z,18.50
2019-02-21T08:22:29.463Z,18.20
2019-02-21T08:24:59.262Z,18.93
2019-02-21T08:27:29.042Z,17.83
2019-02-21T08:29:58.848Z,18.83
2019-02-21T08:32:30.286Z,18.93
2019-02-21T08:35:00.101Z,18.97
2019-02-21T08:37:30.040Z,16.50
2019-02-21T08:40:00.940Z,19.17
2019-02-21T08:42:30.731Z,19.13
2019-02-21T08:45:00.534Z,18.43
2019-02-21T08:47:30.332Z,18.13
2019-02-21T08:50:00.321Z,20.30
2019-02-21T08:52:30.300Z,19.73
2019-02-21T08:55:01.247Z,19.23
2019-02-21T08:57:31.119Z,18.77
2019-02-21T09:00:00.915Z,19.37
2019-02-21T09:02:30.878Z,18.20
2019-02-21T09:05:01.416Z,19.13
2019-02-21T09:07:31.287Z,18.57
2019-02-21T09:10:01.088Z,19.67
2019-02-21T09:12:30.955Z,19.57
2019-02-21T09:15:00.763Z,20.30
2019-02-21T09:17:32.188Z,20.07
2019-02-21T09:20:02.094Z,20.30
2019-02-21T09:22:31.897Z,19.20
2019-02-21T09:25:02.805Z,19.00
2019-02-21T09:27:33.017Z,19.90
2019-02-21T09:30:05.080Z,19.97
2019-02-21T09:32:34.390Z,19.43
2019-02-21T09:35:04.614Z,20.43
2019-02-21T09:37:34.432Z,20.80
2019-02-21T09:40:06.868Z,19.87
2019-02-21T09:42:36.676Z,19.07
2019-02-21T09:45:09.539Z,19.53
2019-02-21T09:47:39.352Z,19.23
2019-02-21T09:50:10.281Z,20.87
2019-02-21T09:52:40.088Z,19.77
2019-02-21T09:55:11.915Z,20.20
2019-02-21T09:57:41.723Z,20.87
2019-02-21T10:00:17.310Z,20.30
2019-02-21T10:02:47.105Z,19.93
2019-02-21T10:05:17.035Z,18.93
2019-02-21T10:07:46.840Z,21.43
2019-02-21T10:10:18.651Z,19.83
2019-02-21T10:12:48.465Z,21.03
2019-02-21T10:15:18.251Z,20.50
2019-02-21T10:17:50.740Z,21.07
2019-02-21T10:20:22.783Z,19.87
2019-02-21T10:22:52.592Z,21.63
2019-02-21T10:25:27.820Z,20.73
2019-02-21T10:27:59.058Z,22.50
2019-02-21T10:30:29.248Z,21.73
2019-02-21T10:32:59.059Z,23.30
2019-02-21T10:35:28.837Z,23.40
2019-02-21T10:37:58.727Z,22.60
2019-02-21T10:40:28.567Z,23.10
2019-02-21T10:42:58.360Z,23.43
2019-02-21T10:45:28.159Z,21.97
2019-02-21T10:47:57.957Z,23.90
2019-02-21T10:50:27.759Z,24.67
2019-02-21T10:52:57.551Z,21.90
2019-02-21T10:55:27.348Z,21.80
2019-02-21T10:57:57.143Z,23.23
2019-02-21T11:00:29.289Z,22.97
2019-02-21T11:02:59.226Z,23.73
2019-02-21T11:05:29.018Z,21.93
2019-02-21T11:07:58.815Z,24.53
2019-02-21T11:10:30.435Z,24.73
2019-02-21T11:13:00.288Z,23.77
2019-02-21T11:15:30.095Z,23.83
2019-02-21T11:17:59.889Z,23.63
2019-02-21T11:20:29.763Z,24.13
2019-02-21T11:22:59.551Z,24.07
2019-02-21T11:25:29.351Z,23.03
2019-02-21T11:27:59.165Z,24.13
2019-02-21T11:30:28.953Z,24.50
2019-02-21T11:32:58.752Z,23.93
2019-02-21T11:35:28.555Z,21.57
2019-02-21T11:37:58.352Z,21.90
2019-02-21T11:40:28.181Z,22.90
2019-02-21T11:42:57.994Z,23.13
2019-02-21T11:45:27.906Z,23.33
2019-02-21T11:47:57.704Z,22.47
2019-02-21T11:50:27.571Z,24.40
2019-02-21T11:52:57.364Z,23.33
2019-02-21T11:55:27.238Z,23.37
2019-02-21T11:57:57.025Z,23.67
2019-02-21T12:00:28.570Z,22.27
2019-02-21T12:02:58.354Z,22.87
2019-02-21T12:05:31.274Z,22.73
2019-02-21T12:07:59.731Z,21.43
2019-02-21T12:10:29.540Z,23.17
2019-02-21T12:12:59.354Z,24.30
2019-02-21T12:15:30.226Z,23.10
2019-02-21T12:18:00.013Z,24.23
2019-02-21T12:20:29.818Z,22.87
2019-02-21T12:22:59.599Z,23.20
2019-02-21T12:25:29.402Z,21.33
2019-02-21T12:27:59.206Z,20.97
2019-02-21T12:30:28.995Z,21.20
2019-02-21T12:32:58.812Z,22.33
2019-02-21T12:35:29.872Z,21.70
2019-02-21T12:38:00.110Z,21.53
2019-02-21T12:40:29.878Z,22.73
2019-02-21T12:42:59.689Z,20.37
2019-02-21T12:45:30.223Z,22.90
2019-02-21T12:48:00.230Z,24.72
2019-02-21T12:50:30.034Z,30.27
2019-02-21T12:52:59.832Z,32.05
2019-02-21T12:55:31.782Z,33.85
2019-02-21T12:58:01.136Z,44.67
2019-02-21T13:00:30.954Z,36.13
2019-02-21T13:03:00.814Z,32.40
2019-02-21T13:05:40.391Z,35.48
2019-02-21T13:08:02.114Z,31.20
2019-02-21T13:10:31.906Z,44.40
2019-02-21T13:13:01.717Z,36.03
2019-02-21T13:15:31.510Z,43.20
2019-02-21T13:18:01.309Z,26.45
2019-02-21T13:20:31.108Z,28.27
2019-02-21T13:23:00.916Z,31.20
2019-02-21T13:25:30.704Z,40.67
2019-02-21T13:28:00.516Z,27.90
2019-02-21T13:30:30.329Z,26.20
2019-02-21T13:33:00.112Z,28.13
2019-02-21T13:35:29.919Z,26.97
2019-02-21T13:37:59.694Z,29.00
2019-02-21T13:40:29.579Z,35.07
2019-02-21T13:42:59.365Z,27.90
2019-02-21T13:45:29.162Z,30.33
2019-02-21T13:47:58.946Z,38.23
2019-02-21T13:50:28.746Z,30.23
2019-02-21T13:52:58.565Z,26.97
2019-02-21T13:55:28.421Z,28.93
2019-02-21T13:57:58.246Z,25.83
2019-02-21T14:00:28.027Z,41.53
2019-02-21T14:02:57.835Z,22.63
2019-02-21T14:05:27.640Z,23.43
2019-02-21T14:07:57.435Z,23.17
2019-02-21T14:10:27.228Z,22.07
2019-02-21T14:12:57.042Z,50.23
2019-02-21T14:15:30.279Z,27.80
2019-02-21T14:18:00.079Z,22.53
2019-02-21T14:20:29.869Z,21.87
2019-02-21T14:22:59.675Z,23.00
2019-02-21T14:25:40.095Z,23.50
2019-02-21T14:28:00.958Z,23.47
2019-02-21T14:30:30.760Z,23.93
2019-02-21T14:33:00.641Z,19.57
2019-02-21T14:35:30.418Z,21.43
2019-02-21T14:38:00.215Z,19.27
2019-02-21T14:40:30.011Z,18.90
2019-02-21T14:42:59.814Z,19.60
2019-02-21T14:45:29.639Z,19.13
2019-02-21T14:47:59.495Z,20.70
2019-02-21T14:50:29.294Z,18.83
2019-02-21T14:53:00.399Z,18.20
2019-02-21T14:55:30.324Z,16.23
2019-02-21T14:58:00.126Z,19.33
2019-02-21T15:00:29.991Z,18.53
2019-02-21T15:02:59.778Z,16.73
2019-02-21T15:05:30.110Z,18.50
2019-02-21T15:07:59.895Z,19.17
2019-02-21T15:10:29.727Z,17.27
2019-02-21T15:13:00.649Z,18.07
2019-02-21T15:15:30.443Z,17.03
2019-02-21T15:18:07.640Z,19.20
2019-02-21T15:20:36.826Z,17.33
2019-02-21T15:23:03.290Z,16.63
2019-02-21T15:25:33.097Z,17.67
2019-02-21T15:28:02.887Z,18.20
2019-02-21T15:30:32.706Z,19.47
2019-02-21T15:33:02.559Z,18.77
2019-02-21T15:35:32.439Z,19.93
2019-02-21T15:38:02.247Z,19.63
2019-02-21T15:40:32.071Z,21.07
2019-02-21T15:43:01.881Z,20.00
2019-02-21T15:45:31.670Z,21.77
2019-02-21T15:48:01.467Z,19.60
2019-02-21T15:50:31.269Z,20.73
2019-02-21T15:53:01.069Z,22.03
2019-02-21T15:55:32.195Z,21.30
2019-02-21T15:58:04.414Z,19.97
2019-02-21T16:00:33.753Z,20.10
2019-02-21T16:03:03.559Z,22.13
2019-02-21T16:05:33.419Z,19.93
2019-02-21T16:08:03.591Z,18.97
2019-02-21T16:10:33.383Z,20.47
2019-02-21T16:13:04.484Z,19.70
2019-02-21T16:15:34.679Z,20.10
2019-02-21T16:18:04.479Z,21.77
2019-02-21T16:20:34.312Z,21.40
2019-02-21T16:23:04.233Z,21.37
2019-02-21T16:25:34.398Z,21.13
2019-02-21T16:28:04.189Z,20.97
2019-02-21T16:30:33.987Z,22.23
2019-02-21T16:33:03.798Z,19.83
2019-02-21T16:35:33.580Z,21.67
2019-02-21T16:38:03.379Z,22.00
2019-02-21T16:40:33.175Z,22.13
2019-02-21T16:43:02.979Z,23.73
2019-02-21T16:45:43.034Z,21.97
2019-02-21T16:48:04.690Z,19.97
2019-02-21T16:50:34.495Z,21.00
2019-02-21T16:53:04.315Z,21.00
2019-02-21T16:55:34.135Z,21.40
2019-02-21T16:58:04.015Z,21.23
2019-02-21T17:00:47.334Z,20.70
2019-02-21T17:03:05.567Z,22.37
2019-02-21T17:05:35.346Z,21.30
2019-02-21T17:08:05.251Z,22.00
2019-02-21T17:10:35.050Z,22.23
2019-02-21T17:13:05.210Z,23.47
2019-02-21T17:15:35.059Z,22.17
2019-02-21T17:18:05.013Z,21.10
2019-02-21T17:20:36.155Z,23.87
2019-02-21T17:23:06.071Z,23.23
2019-02-21T17:25:35.866Z,23.67
2019-02-21T17:28:05.683Z,22.20
2019-02-21T17:30:35.491Z,24.20
2019-02-21T17:33:05.388Z,24.50
2019-02-21T17:35:35.189Z,25.37
2019-02-21T17:38:04.980Z,22.57
2019-02-21T17:40:34.794Z,25.90
2019-02-21T17:43:04.592Z,24.37
2019-02-21T17:45:34.392Z,25.93
2019-02-21T17:48:04.186Z,24.10
2019-02-21T17:50:34.055Z,27.53
2019-02-21T17:53:03.912Z,26.50
2019-02-21T17:55:33.711Z,24.83
2019-02-21T17:58:03.511Z,25.27
2019-02-21T18:00:37.660Z,24.97
2019-02-21T18:03:07.447Z,29.10
2019-02-21T18:05:37.247Z,25.00
2019-02-21T18:08:08.036Z,25.33
2019-02-21T18:10:38.716Z,24.17
2019-02-21T18:13:08.518Z,22.90
2019-02-21T18:15:38.313Z,22.10
2019-02-21T18:18:08.116Z,22.53
2019-02-21T18:20:37.916Z,21.17
2019-02-21T18:23:07.726Z,20.83
2019-02-21T18:25:40.656Z,20.43
2019-02-21T18:28:10.484Z,20.37
2019-02-21T18:30:40.296Z,20.43
2019-02-21T18:33:10.160Z,17.93
2019-02-21T18:35:39.950Z,19.17
2019-02-21T18:38:10.834Z,19.53
2019-02-21T18:40:40.632Z,18.20
2019-02-21T18:43:10.428Z,20.23
2019-02-21T18:45:40.210Z,18.73
2019-02-21T18:48:10.008Z,19.10
2019-02-21T18:50:39.816Z,20.40
2019-02-21T18:53:09.632Z,19.23
2019-02-21T18:55:39.426Z,19.37
2019-02-21T18:58:09.249Z,18.67
2019-02-21T19:00:40.006Z,19.13
2019-02-21T19:03:09.816Z,19.30
2019-02-21T19:05:39.602Z,19.03
2019-02-21T19:08:09.420Z,18.53
2019-02-21T19:10:39.214Z,17.90
2019-02-21T19:13:09.028Z,19.80
2019-02-21T19:15:38.885Z,19.93
2019-02-21T19:18:08.678Z,20.03
2019-02-21T19:20:38.545Z,20.23
2019-02-21T19:23:08.340Z,20.67
2019-02-21T19:25:39.512Z,20.80
2019-02-21T19:28:09.322Z,19.40
2019-02-21T19:30:42.605Z,19.90
2019-02-21T19:33:12.478Z,21.03
2019-02-21T19:35:42.262Z,23.80
2019-02-21T19:38:12.155Z,21.93
2019-02-21T19:40:41.950Z,22.70
2019-02-21T19:43:11.762Z,25.13
2019-02-21T19:45:41.625Z,25.03
2019-02-21T19:48:11.502Z,23.67
2019-02-21T19:50:41.303Z,23.63
2019-02-21T19:53:11.272Z,21.63
2019-02-21T19:55:41.136Z,23.47
2019-02-21T19:58:10.922Z,23.60
2019-02-21T20:00:41.077Z,22.17
2019-02-21T20:03:10.949Z,24.13
2019-02-21T20:05:41.179Z,22.17
2019-02-21T20:08:21.004Z,25.00
2019-02-21T20:10:42.782Z,23.30
2019-02-21T20:13:13.538Z,23.73
2019-02-21T20:15:43.392Z,22.60
2019-02-21T20:18:13.184Z,25.83
2019-02-21T20:20:43.091Z,24.77
2019-02-21T20:23:12.886Z,25.10
2019-02-21T20:25:42.698Z,25.57
2019-02-21T20:28:12.487Z,25.63
2019-02-21T20:30:42.373Z,28.03
2019-02-21T20:33:12.366Z,25.77
2019-02-21T20:35:43.242Z,26.03
2019-02-21T20:38:13.070Z,25.27
2019-02-21T20:40:42.871Z,25.33
2019-02-21T20:43:12.678Z,26.40
2019-02-21T20:45:52.572Z,26.27
2019-02-21T20:48:13.972Z,26.43
2019-02-21T20:50:43.794Z,26.13
2019-02-21T20:53:14.787Z,25.13
2019-02-21T20:55:44.573Z,27.67
2019-02-21T20:58:14.377Z,25.70
2019-02-21T21:00:44.237Z,25.10
2019-02-21T21:03:14.182Z,26.20
2019-02-21T21:05:44.033Z,27.93
2019-02-21T21:08:14.916Z,27.90
2019-02-21T21:10:44.698Z,28.90
2019-02-21T21:13:14.521Z,28.63
2019-02-21T21:15:44.802Z,28.40
2019-02-21T21:18:14.654Z,30.10
2019-02-21T21:20:44.440Z,30.10
2019-02-21T21:23:14.246Z,29.53
2019-02-21T21:25:44.032Z,27.63
2019-02-21T21:28:13.838Z,28.90
2019-02-21T21:30:46.694Z,28.87
2019-02-21T21:33:17.571Z,29.60
2019-02-21T21:35:47.356Z,28.63
2019-02-21T21:38:24.144Z,27.80
2019-02-21T21:40:48.650Z,29.80
2019-02-21T21:43:18.497Z,29.33
2019-02-21T21:45:48.283Z,27.83
2019-02-21T21:48:18.105Z,27.67
2019-02-21T21:50:47.883Z,27.70
2019-02-21T21:53:17.691Z,28.23
2019-02-21T21:55:47.481Z,28.60
2019-02-21T21:58:17.271Z,27.27
2019-02-21T22:00:47.079Z,29.60
2019-02-21T22:03:16.955Z,29.63
2019-02-21T22:05:46.748Z,28.07
2019-02-21T22:08:16.551Z,28.93
2019-02-21T22:10:46.351Z,29.30
2019-02-21T22:13:16.141Z,29.33
2019-02-21T22:15:45.938Z,28.73
2019-02-21T22:18:15.738Z,28.43
2019-02-21T22:20:45.564Z,29.47
2019-02-21T22:23:15.339Z,28.20
2019-02-21T22:25:45.139Z,28.73
2019-02-21T22:28:14.938Z,27.77
2019-02-21T22:30:44.739Z,29.63
2019-02-21T22:33:14.524Z,30.13
2019-02-21T22:35:44.323Z,28.67
2019-02-21T22:38:14.117Z,29.27
2019-02-21T22:40:43.955Z,30.27
2019-02-21T22:43:13.754Z,28.43
2019-02-21T22:45:43.538Z,29.20
2019-02-21T22:48:13.346Z,25.57
2019-02-21T22:50:43.133Z,28.67
2019-02-21T22:53:14.015Z,29.33
2019-02-21T22:55:43.802Z,28.63
2019-02-21T22:58:13.613Z,28.53
2019-02-21T23:00:59.327Z,29.67
2019-02-21T23:03:39.135Z,30.13
2019-02-21T23:06:17.774Z,28.23
2019-02-21T23:08:54.499Z,29.60
2019-02-21T23:11:24.368Z,25.80
2019-02-21T23:13:54.744Z,27.13
2019-02-21T23:16:24.671Z,29.57
2019-02-21T23:18:54.474Z,28.93
2019-02-21T23:21:24.255Z,27.77
2019-02-21T23:23:54.136Z,27.93
2019-02-21T23:26:23.927Z,29.73
2019-02-21T23:28:53.727Z,27.67
2019-02-21T23:31:23.515Z,27.27
2019-02-21T23:33:55.011Z,30.30
2019-02-21T23:36:24.808Z,27.20
2019-02-21T23:38:54.615Z,29.63
2019-02-21T23:41:24.483Z,28.97
2019-02-21T23:43:54.291Z,31.73
2019-02-21T23:46:24.151Z,31.27
2019-02-21T23:48:54.019Z,30.27
2019-02-21T23:51:23.843Z,30.47
2019-02-21T23:54:02.805Z,31.30
2019-02-21T23:56:25.119Z,34.33
2019-02-21T23:58:54.957Z,33.37
